sensor_id;sensor_type;location;lat;lon;timestamp;pressure;altitude;pressure_sealevel;temperature;humidity
30021;BME280;16861;52.294;7.760;2023-07-22T00:00:30;99570.19;;;16.64;56.69
30021;BME280;16861;52.294;7.760;2023-07-22T00:02:57;99566.59;;;16.65;56.48
30021;BME280;16861;52.294;7.760;2023-07-22T00:05:24;99574.41;;;16.67;56.16
30021;BME280;16861;52.294;7.760;2023-07-22T00:07:51;99576.13;;;16.68;56.20
30021;BME280;16861;52.294;7.760;2023-07-22T00:10:18;99571.63;;;16.68;56.38
30021;BME280;16861;52.294;7.760;2023-07-22T00:12:44;99568.84;;;16.70;56.70
30021;BME280;16861;52.294;7.760;2023-07-22T00:15:11;99575.81;;;16.71;56.47
30021;BME280;16861;52.294;7.760;2023-07-22T00:17:40;99567.84;;;16.71;56.11
30021;BME280;16861;52.294;7.760;2023-07-22T00:20:08;99567.03;;;16.71;56.40
30021;BME280;16861;52.294;7.760;2023-07-22T00:22:38;99568.00;;;16.70;56.16
30021;BME280;16861;52.294;7.760;2023-07-22T00:25:07;99570.66;;;16.70;56.10
30021;BME280;16861;52.294;7.760;2023-07-22T00:27:40;99559.56;;;16.64;56.49
30021;BME280;16861;52.294;7.760;2023-07-22T00:30:07;99565.72;;;16.65;56.29
30021;BME280;16861;52.294;7.760;2023-07-22T00:32:34;99561.66;;;16.61;56.07
30021;BME280;16861;52.294;7.760;2023-07-22T00:35:04;99569.88;;;16.58;56.36
30021;BME280;16861;52.294;7.760;2023-07-22T00:37:32;99561.22;;;16.56;56.05
30021;BME280;16861;52.294;7.760;2023-07-22T00:39:59;99561.47;;;16.52;56.24
30021;BME280;16861;52.294;7.760;2023-07-22T00:42:25;99563.56;;;16.49;56.13
30021;BME280;16861;52.294;7.760;2023-07-22T00:44:51;99555.72;;;16.47;56.54
30021;BME280;16861;52.294;7.760;2023-07-22T00:47:19;99560.44;;;16.44;56.53
30021;BME280;16861;52.294;7.760;2023-07-22T00:49:47;99563.13;;;16.44;56.62
30021;BME280;16861;52.294;7.760;2023-07-22T00:52:14;99552.63;;;16.42;56.46
30021;BME280;16861;52.294;7.760;2023-07-22T00:54:42;99556.09;;;16.42;56.39
30021;BME280;16861;52.294;7.760;2023-07-22T00:57:09;99552.75;;;16.40;56.51
30021;BME280;16861;52.294;7.760;2023-07-22T00:59:36;99547.56;;;16.39;56.55
30021;BME280;16861;52.294;7.760;2023-07-22T01:02:02;99548.53;;;16.38;56.43
30021;BME280;16861;52.294;7.760;2023-07-22T01:04:29;99547.81;;;16.36;56.38
30021;BME280;16861;52.294;7.760;2023-07-22T01:07:00;99545.28;;;16.34;56.46
30021;BME280;16861;52.294;7.760;2023-07-22T01:09:36;99539.38;;;16.31;57.57
30021;BME280;16861;52.294;7.760;2023-07-22T01:12:04;99547.09;;;16.34;56.84
30021;BME280;16861;52.294;7.760;2023-07-22T01:14:36;99540.13;;;16.33;57.05
30021;BME280;16861;52.294;7.760;2023-07-22T01:17:04;99545.44;;;16.33;56.98
30021;BME280;16861;52.294;7.760;2023-07-22T01:19:32;99544.56;;;16.32;56.89
30021;BME280;16861;52.294;7.760;2023-07-22T01:22:03;99547.34;;;16.31;57.33
30021;BME280;16861;52.294;7.760;2023-07-22T01:24:32;99545.44;;;16.33;56.79
30021;BME280;16861;52.294;7.760;2023-07-22T01:26:58;99545.44;;;16.33;56.87
30021;BME280;16861;52.294;7.760;2023-07-22T01:29:25;99546.38;;;16.32;57.13
30021;BME280;16861;52.294;7.760;2023-07-22T01:31:53;99539.25;;;16.32;56.96
30021;BME280;16861;52.294;7.760;2023-07-22T01:34:21;99542.03;;;16.31;57.14
30021;BME280;16861;52.294;7.760;2023-07-22T01:36:49;99541.22;;;16.30;57.07
30021;BME280;16861;52.294;7.760;2023-07-22T01:39:16;99540.38;;;16.30;57.04
30021;BME280;16861;52.294;7.760;2023-07-22T01:41:43;99538.69;;;16.28;56.94
30021;BME280;16861;52.294;7.760;2023-07-22T01:44:09;99538.69;;;16.28;57.14
30021;BME280;16861;52.294;7.760;2023-07-22T01:46:37;99537.84;;;16.28;57.09
30021;BME280;16861;52.294;7.760;2023-07-22T01:49:06;99544.13;;;16.27;57.27
30021;BME280;16861;52.294;7.760;2023-07-22T01:51:34;99540.63;;;16.26;56.34
30021;BME280;16861;52.294;7.760;2023-07-22T01:54:01;99544.38;;;16.24;56.89
30021;BME280;16861;52.294;7.760;2023-07-22T01:56:27;99548.00;;;16.23;56.62
30021;BME280;16861;52.294;7.760;2023-07-22T01:58:54;99543.69;;;16.22;56.94
30021;BME280;16861;52.294;7.760;2023-07-22T02:01:21;99545.72;;;16.18;57.06
30021;BME280;16861;52.294;7.760;2023-07-22T02:03:47;99551.16;;;16.17;56.89
30021;BME280;16861;52.294;7.760;2023-07-22T02:06:14;99552.16;;;16.15;57.28
30021;BME280;16861;52.294;7.760;2023-07-22T02:08:41;99557.59;;;16.14;57.40
30021;BME280;16861;52.294;7.760;2023-07-22T02:11:08;99551.56;;;16.12;57.26
30021;BME280;16861;52.294;7.760;2023-07-22T02:13:35;99549.91;;;16.11;57.36
30021;BME280;16861;52.294;7.760;2023-07-22T02:16:02;99547.50;;;16.08;57.46
30021;BME280;16861;52.294;7.760;2023-07-22T02:18:29;99550.84;;;16.10;57.38
30021;BME280;16861;52.294;7.760;2023-07-22T02:20:56;99553.66;;;16.08;57.84
30021;BME280;16861;52.294;7.760;2023-07-22T02:23:23;99546.50;;;16.09;57.45
30021;BME280;16861;52.294;7.760;2023-07-22T02:25:51;99548.34;;;16.08;57.52
30021;BME280;16861;52.294;7.760;2023-07-22T02:28:19;99549.28;;;16.07;57.67
30021;BME280;16861;52.294;7.760;2023-07-22T02:30:53;99550.38;;;16.05;58.10
30021;BME280;16861;52.294;7.760;2023-07-22T02:33:21;99545.22;;;16.03;57.67
30021;BME280;16861;52.294;7.760;2023-07-22T02:35:50;99547.03;;;16.02;57.55
30021;BME280;16861;52.294;7.760;2023-07-22T02:38:17;99543.66;;;16.00;57.82
30021;BME280;16861;52.294;7.760;2023-07-22T02:40:44;99543.06;;;15.97;57.58
30021;BME280;16861;52.294;7.760;2023-07-22T02:43:10;99543.19;;;15.95;57.78
30021;BME280;16861;52.294;7.760;2023-07-22T02:45:37;99548.50;;;15.95;57.94
30021;BME280;16861;52.294;7.760;2023-07-22T02:48:03;99549.56;;;15.93;57.95
30021;BME280;16861;52.294;7.760;2023-07-22T02:50:31;99555.75;;;15.93;58.04
30021;BME280;16861;52.294;7.760;2023-07-22T02:52:57;99548.72;;;15.92;58.15
30021;BME280;16861;52.294;7.760;2023-07-22T02:55:24;99555.00;;;15.91;58.20
30021;BME280;16861;52.294;7.760;2023-07-22T02:57:50;99548.03;;;15.90;58.18
30021;BME280;16861;52.294;7.760;2023-07-22T03:00:18;99545.38;;;15.90;58.42
30021;BME280;16861;52.294;7.760;2023-07-22T03:02:55;99549.94;;;15.88;59.05
30021;BME280;16861;52.294;7.760;2023-07-22T03:05:28;99553.34;;;15.90;58.38
30021;BME280;16861;52.294;7.760;2023-07-22T03:07:55;99553.47;;;15.88;58.27
30021;BME280;16861;52.294;7.760;2023-07-22T03:10:22;99556.97;;;15.89;58.49
30021;BME280;16861;52.294;7.760;2023-07-22T03:12:50;99555.25;;;15.88;58.42
30021;BME280;16861;52.294;7.760;2023-07-22T03:15:24;99554.56;;;15.86;59.00
30021;BME280;16861;52.294;7.760;2023-07-22T03:17:53;99553.56;;;15.87;58.61
30021;BME280;16861;52.294;7.760;2023-07-22T03:20:22;99553.47;;;15.88;58.56
30021;BME280;16861;52.294;7.760;2023-07-22T03:22:50;99552.59;;;15.88;58.65
30021;BME280;16861;52.294;7.760;2023-07-22T03:25:19;99550.94;;;15.87;58.73
30021;BME280;16861;52.294;7.760;2023-07-22T03:27:46;99545.63;;;15.87;58.83
30021;BME280;16861;52.294;7.760;2023-07-22T03:30:15;99552.59;;;15.88;59.05
30021;BME280;16861;52.294;7.760;2023-07-22T03:32:43;99553.47;;;15.88;59.13
30021;BME280;16861;52.294;7.760;2023-07-22T03:35:10;99552.59;;;15.88;58.96
30021;BME280;16861;52.294;7.760;2023-07-22T03:37:39;99565.75;;;15.89;59.13
30021;BME280;16861;52.294;7.760;2023-07-22T03:40:06;99563.94;;;15.90;59.23
30021;BME280;16861;52.294;7.760;2023-07-22T03:42:55;99562.13;;;15.90;59.06
30021;BME280;16861;52.294;7.760;2023-07-22T03:45:22;99561.06;;;15.93;58.92
30021;BME280;16861;52.294;7.760;2023-07-22T03:47:57;99568.28;;;15.91;59.87
30021;BME280;16861;52.294;7.760;2023-07-22T03:50:25;99564.44;;;15.95;59.24
30021;BME280;16861;52.294;7.760;2023-07-22T03:52:51;99571.44;;;15.96;59.07
30021;BME280;16861;52.294;7.760;2023-07-22T03:55:18;99571.44;;;15.96;59.32
30021;BME280;16861;52.294;7.760;2023-07-22T03:57:46;99573.13;;;15.97;59.19
30021;BME280;16861;52.294;7.760;2023-07-22T04:00:13;99572.16;;;15.98;59.20
30021;BME280;16861;52.294;7.760;2023-07-22T04:02:39;99572.84;;;16.00;59.35
30021;BME280;16861;52.294;7.760;2023-07-22T04:05:07;99569.38;;;16.00;59.28
30021;BME280;16861;52.294;7.760;2023-07-22T04:07:34;99572.72;;;16.02;59.22
30021;BME280;16861;52.294;7.760;2023-07-22T04:10:01;99570.94;;;16.02;59.33
30021;BME280;16861;52.294;7.760;2023-07-22T04:12:27;99568.16;;;16.04;59.47
30021;BME280;16861;52.294;7.760;2023-07-22T04:14:55;99560.03;;;16.06;59.42
30021;BME280;16861;52.294;7.760;2023-07-22T04:17:22;99561.75;;;16.07;59.52
30021;BME280;16861;52.294;7.760;2023-07-22T04:19:51;99563.41;;;16.08;59.67
30021;BME280;16861;52.294;7.760;2023-07-22T04:22:18;99570.16;;;16.12;59.15
30021;BME280;16861;52.294;7.760;2023-07-22T04:24:45;99564.72;;;16.13;59.52
30021;BME280;16861;52.294;7.760;2023-07-22T04:27:15;99568.94;;;16.16;59.50
30021;BME280;16861;52.294;7.760;2023-07-22T04:29:42;99573.25;;;16.17;59.29
30021;BME280;16861;52.294;7.760;2023-07-22T04:32:09;99566.97;;;16.18;59.25
30021;BME280;16861;52.294;7.760;2023-07-22T04:34:36;99566.84;;;16.20;59.39
30021;BME280;16861;52.294;7.760;2023-07-22T04:37:03;99572.03;;;16.21;59.46
30021;BME280;16861;52.294;7.760;2023-07-22T04:39:29;99562.28;;;16.22;59.38
30021;BME280;16861;52.294;7.760;2023-07-22T04:41:56;99568.28;;;16.24;59.41
30021;BME280;16861;52.294;7.760;2023-07-22T04:44:23;99569.13;;;16.24;59.54
30021;BME280;16861;52.294;7.760;2023-07-22T04:46:50;99575.16;;;16.26;59.65
30021;BME280;16861;52.294;7.760;2023-07-22T04:49:17;99574.91;;;16.30;59.56
30021;BME280;16861;52.294;7.760;2023-07-22T04:51:48;99579.22;;;16.31;59.99
30021;BME280;16861;52.294;7.760;2023-07-22T04:54:14;99579.81;;;16.34;59.50
30021;BME280;16861;52.294;7.760;2023-07-22T04:56:42;99575.34;;;16.35;59.26
30021;BME280;16861;52.294;7.760;2023-07-22T04:59:09;99578.84;;;16.35;59.24
30021;BME280;16861;52.294;7.760;2023-07-22T05:01:36;99577.88;;;16.36;59.42
30021;BME280;16861;52.294;7.760;2023-07-22T05:04:03;99584.03;;;16.37;59.16
30021;BME280;16861;52.294;7.760;2023-07-22T05:06:31;99581.38;;;16.37;59.42
30021;BME280;16861;52.294;7.760;2023-07-22T05:08:58;99585.72;;;16.38;59.44
30021;BME280;16861;52.294;7.760;2023-07-22T05:11:25;99582.09;;;16.39;59.46
30021;BME280;16861;52.294;7.760;2023-07-22T05:13:52;99572.31;;;16.39;59.31
30021;BME280;16861;52.294;7.760;2023-07-22T05:16:18;99579.44;;;16.39;59.59
30021;BME280;16861;52.294;7.760;2023-07-22T05:18:45;99581.97;;;16.40;59.67
30021;BME280;16861;52.294;7.760;2023-07-22T05:21:12;99577.50;;;16.41;59.84
30021;BME280;16861;52.294;7.760;2023-07-22T05:23:38;99580.16;;;16.41;59.78
30021;BME280;16861;52.294;7.760;2023-07-22T05:26:05;99584.50;;;16.42;59.94
30021;BME280;16861;52.294;7.760;2023-07-22T05:28:32;99586.03;;;16.45;60.16
30021;BME280;16861;52.294;7.760;2023-07-22T05:30:58;99587.59;;;16.47;60.25
30021;BME280;16861;52.294;7.760;2023-07-22T05:33:25;99594.47;;;16.50;60.27
30021;BME280;16861;52.294;7.760;2023-07-22T05:35:52;99594.22;;;16.53;60.41
30021;BME280;16861;52.294;7.760;2023-07-22T05:38:18;99594.78;;;16.57;60.72
30021;BME280;16861;52.294;7.760;2023-07-22T05:40:45;99598.84;;;16.61;60.26
30021;BME280;16861;52.294;7.760;2023-07-22T05:43:12;99595.09;;;16.63;60.59
30021;BME280;16861;52.294;7.760;2023-07-22T05:45:38;99597.50;;;16.66;60.31
30021;BME280;16861;52.294;7.760;2023-07-22T05:48:05;99597.25;;;16.70;60.47
30021;BME280;16861;52.294;7.760;2023-07-22T05:50:32;99597.09;;;16.71;60.41
30021;BME280;16861;52.294;7.760;2023-07-22T05:52:59;99598.38;;;16.77;60.52
30021;BME280;16861;52.294;7.760;2023-07-22T05:55:25;99591.97;;;16.79;60.56
30021;BME280;16861;52.294;7.760;2023-07-22T05:57:53;99587.13;;;16.85;60.48
30021;BME280;16861;52.294;7.760;2023-07-22T06:00:20;99586.00;;;16.87;60.50
30021;BME280;16861;52.294;7.760;2023-07-22T06:02:47;99586.56;;;16.91;60.50
30021;BME280;16861;52.294;7.760;2023-07-22T06:05:15;99592.59;;;16.93;60.33
30021;BME280;16861;52.294;7.760;2023-07-22T06:07:42;99589.66;;;16.96;60.39
30021;BME280;16861;52.294;7.760;2023-07-22T06:10:09;99595.72;;;16.98;60.62
30021;BME280;16861;52.294;7.760;2023-07-22T06:12:36;99597.13;;;17.02;60.88
30021;BME280;16861;52.294;7.760;2023-07-22T06:15:03;99596.75;;;17.07;61.23
30021;BME280;16861;52.294;7.760;2023-07-22T06:17:30;99593.41;;;17.15;61.60
30021;BME280;16861;52.294;7.760;2023-07-22T06:19:57;99601.41;;;17.25;61.50
30021;BME280;16861;52.294;7.760;2023-07-22T06:22:24;99600.47;;;17.36;61.61
30021;BME280;16861;52.294;7.760;2023-07-22T06:24:50;99597.72;;;17.47;61.63
30021;BME280;16861;52.294;7.760;2023-07-22T06:27:17;99600.25;;;17.58;61.72
30021;BME280;16861;52.294;7.760;2023-07-22T06:29:44;99601.94;;;17.69;60.96
30021;BME280;16861;52.294;7.760;2023-07-22T06:32:11;99599.31;;;17.79;60.72
30021;BME280;16861;52.294;7.760;2023-07-22T06:34:37;99605.75;;;17.87;60.44
30021;BME280;16861;52.294;7.760;2023-07-22T06:37:04;99604.38;;;17.92;60.23
30021;BME280;16861;52.294;7.760;2023-07-22T06:39:31;99603.94;;;17.97;60.03
30021;BME280;16861;52.294;7.760;2023-07-22T06:41:58;99602.81;;;18.00;59.89
30021;BME280;16861;52.294;7.760;2023-07-22T06:44:24;99597.22;;;18.03;60.47
30021;BME280;16861;52.294;7.760;2023-07-22T06:46:51;99600.44;;;18.06;60.21
30021;BME280;16861;52.294;7.760;2023-07-22T06:49:17;99593.88;;;18.10;59.96
30021;BME280;16861;52.294;7.760;2023-07-22T06:51:44;99594.59;;;18.13;60.00
30021;BME280;16861;52.294;7.760;2023-07-22T06:54:11;99594.16;;;18.17;60.09
30021;BME280;16861;52.294;7.760;2023-07-22T06:56:37;99600.06;;;18.21;60.13
30021;BME280;16861;52.294;7.760;2023-07-22T06:59:04;99596.94;;;18.26;59.91
30021;BME280;16861;52.294;7.760;2023-07-22T07:01:30;99593.16;;;18.28;60.20
30021;BME280;16861;52.294;7.760;2023-07-22T07:03:57;99590.22;;;18.31;60.24
30021;BME280;16861;52.294;7.760;2023-07-22T07:06:24;99588.97;;;18.35;60.04
30021;BME280;16861;52.294;7.760;2023-07-22T07:08:50;99588.53;;;18.40;59.93
30021;BME280;16861;52.294;7.760;2023-07-22T07:11:18;99596.81;;;18.47;60.28
30021;BME280;16861;52.294;7.760;2023-07-22T07:13:45;99592.69;;;18.53;60.02
30021;BME280;16861;52.294;7.760;2023-07-22T07:16:25;99594.94;;;18.57;60.40
30021;BME280;16861;52.294;7.760;2023-07-22T07:18:53;99594.09;;;18.67;60.46
30021;BME280;16861;52.294;7.760;2023-07-22T07:21:21;99587.19;;;18.74;60.29
30021;BME280;16861;52.294;7.760;2023-07-22T07:23:48;99594.59;;;18.80;59.89
30021;BME280;16861;52.294;7.760;2023-07-22T07:26:15;99590.53;;;18.86;59.73
30021;BME280;16861;52.294;7.760;2023-07-22T07:28:42;99587.56;;;18.89;59.88
30021;BME280;16861;52.294;7.760;2023-07-22T07:31:09;99595.97;;;18.94;59.84
30021;BME280;16861;52.294;7.760;2023-07-22T07:33:36;99593.84;;;18.98;59.90
30021;BME280;16861;52.294;7.760;2023-07-22T07:36:03;99598.88;;;19.01;59.67
30021;BME280;16861;52.294;7.760;2023-07-22T07:38:30;99597.75;;;19.04;59.60
30021;BME280;16861;52.294;7.760;2023-07-22T07:40:59;99603.84;;;19.06;59.97
30021;BME280;16861;52.294;7.760;2023-07-22T07:43:26;99603.22;;;19.12;59.72
30021;BME280;16861;52.294;7.760;2023-07-22T07:46:22;99594.22;;;19.13;60.02
30021;BME280;16861;52.294;7.760;2023-07-22T07:48:52;99598.69;;;19.22;59.86
30021;BME280;16861;52.294;7.760;2023-07-22T07:51:20;99594.59;;;19.28;59.65
30021;BME280;16861;52.294;7.760;2023-07-22T07:53:47;99592.31;;;19.33;60.03
30021;BME280;16861;52.294;7.760;2023-07-22T07:56:16;99596.06;;;19.40;60.34
30021;BME280;16861;52.294;7.760;2023-07-22T07:58:43;99602.34;;;19.49;60.20
30021;BME280;16861;52.294;7.760;2023-07-22T08:01:10;99601.59;;;19.57;59.84
30021;BME280;16861;52.294;7.760;2023-07-22T08:03:41;99590.28;;;19.63;59.66
30021;BME280;16861;52.294;7.760;2023-07-22T08:06:09;99594.91;;;19.71;59.65
30021;BME280;16861;52.294;7.760;2023-07-22T08:08:37;99594.81;;;19.81;59.51
30021;BME280;16861;52.294;7.760;2023-07-22T08:11:07;99591.06;;;19.92;59.71
30021;BME280;16861;52.294;7.760;2023-07-22T08:13:35;99595.38;;;20.03;59.83
30021;BME280;16861;52.294;7.760;2023-07-22T08:16:03;99587.00;;;20.16;59.31
30021;BME280;16861;52.294;7.760;2023-07-22T08:18:31;99591.25;;;20.27;59.01
30021;BME280;16861;52.294;7.760;2023-07-22T08:20:59;99592.84;;;20.38;59.22
30021;BME280;16861;52.294;7.760;2023-07-22T08:23:26;99581.06;;;20.49;58.60
30021;BME280;16861;52.294;7.760;2023-07-22T08:25:52;99593.31;;;20.60;58.49
30021;BME280;16861;52.294;7.760;2023-07-22T08:28:19;99585.19;;;20.69;57.90
30021;BME280;16861;52.294;7.760;2023-07-22T08:30:47;99591.56;;;20.77;57.74
30021;BME280;16861;52.294;7.760;2023-07-22T08:33:15;99601.31;;;20.86;56.88
30021;BME280;16861;52.294;7.760;2023-07-22T08:35:56;99596.91;;;20.95;56.78
30021;BME280;16861;52.294;7.760;2023-07-22T08:38:23;99595.59;;;20.99;57.12
30021;BME280;16861;52.294;7.760;2023-07-22T08:40:50;99600.13;;;21.07;56.42
30021;BME280;16861;52.294;7.760;2023-07-22T08:43:21;99603.16;;;21.12;56.54
30021;BME280;16861;52.294;7.760;2023-07-22T08:45:51;99596.16;;;21.19;56.07
30021;BME280;16861;52.294;7.760;2023-07-22T08:48:19;99598.03;;;21.27;56.65
30021;BME280;16861;52.294;7.760;2023-07-22T08:51:03;99600.91;;;21.34;55.60
30021;BME280;16861;52.294;7.760;2023-07-22T08:53:31;99594.94;;;21.48;55.74
30021;BME280;16861;52.294;7.760;2023-07-22T08:56:00;99608.34;;;21.57;55.27
30021;BME280;16861;52.294;7.760;2023-07-22T08:58:28;99620.06;;;21.64;55.55
30021;BME280;16861;52.294;7.760;2023-07-22T09:00:56;99605.88;;;21.72;55.54
30021;BME280;16861;52.294;7.760;2023-07-22T09:03:23;99604.91;;;21.81;55.02
30021;BME280;16861;52.294;7.760;2023-07-22T09:05:50;99609.28;;;21.91;54.72
30021;BME280;16861;52.294;7.760;2023-07-22T09:08:17;99612.13;;;21.97;54.08
30021;BME280;16861;52.294;7.760;2023-07-22T09:13:18;99606.97;;;22.12;53.16
30021;BME280;16861;52.294;7.760;2023-07-22T09:15:45;99604.59;;;22.18;52.85
30021;BME280;16861;52.294;7.760;2023-07-22T09:18:12;99600.59;;;22.22;53.16
30021;BME280;16861;52.294;7.760;2023-07-22T09:20:41;99606.13;;;22.29;52.75
30021;BME280;16861;52.294;7.760;2023-07-22T09:23:09;99600.44;;;22.32;52.11
30021;BME280;16861;52.294;7.760;2023-07-22T09:25:41;99605.47;;;22.35;52.03
30021;BME280;16861;52.294;7.760;2023-07-22T09:28:08;99598.22;;;22.35;51.18
30021;BME280;16861;52.294;7.760;2023-07-22T09:30:36;99593.88;;;22.34;51.46
30021;BME280;16861;52.294;7.760;2023-07-22T09:33:07;99599.25;;;22.34;51.12
30021;BME280;16861;52.294;7.760;2023-07-22T09:35:45;99588.03;;;22.31;51.14
30021;BME280;16861;52.294;7.760;2023-07-22T09:38:12;99585.69;;;22.36;51.02
30021;BME280;16861;52.294;7.760;2023-07-22T09:40:41;99581.13;;;22.36;51.24
30021;BME280;16861;52.294;7.760;2023-07-22T09:43:11;99586.34;;;22.38;50.94
30021;BME280;16861;52.294;7.760;2023-07-22T09:45:40;99580.97;;;22.46;51.27
30021;BME280;16861;52.294;7.760;2023-07-22T09:48:08;99577.28;;;22.56;51.50
30021;BME280;16861;52.294;7.760;2023-07-22T09:50:36;99574.25;;;22.67;50.33
30021;BME280;16861;52.294;7.760;2023-07-22T09:53:03;99568.16;;;22.82;50.03
30021;BME280;16861;52.294;7.760;2023-07-22T09:55:31;99576.03;;;22.91;50.02
30021;BME280;16861;52.294;7.760;2023-07-22T09:58:03;99566.75;;;23.02;48.42
30021;BME280;16861;52.294;7.760;2023-07-22T10:00:33;99568.22;;;23.13;48.65
30021;BME280;16861;52.294;7.760;2023-07-22T10:03:03;99570.03;;;23.21;49.12
30021;BME280;16861;52.294;7.760;2023-07-22T10:05:38;99558.78;;;23.26;49.03
30021;BME280;16861;52.294;7.760;2023-07-22T10:08:06;99573.84;;;23.35;48.89
30021;BME280;16861;52.294;7.760;2023-07-22T10:10:43;99565.75;;;23.43;48.67
30021;BME280;16861;52.294;7.760;2023-07-22T10:13:10;99560.16;;;23.53;48.44
30021;BME280;16861;52.294;7.760;2023-07-22T10:15:37;99561.13;;;23.61;48.25
30021;BME280;16861;52.294;7.760;2023-07-22T10:18:04;99562.06;;;23.68;47.99
30021;BME280;16861;52.294;7.760;2023-07-22T10:20:31;99567.41;;;23.76;48.35
30021;BME280;16861;52.294;7.760;2023-07-22T10:23:02;99555.75;;;23.84;47.75
30021;BME280;16861;52.294;7.760;2023-07-22T10:25:30;99554.88;;;23.92;47.34
30021;BME280;16861;52.294;7.760;2023-07-22T10:27:57;99562.03;;;24.00;47.21
30021;BME280;16861;52.294;7.760;2023-07-22T10:30:23;99551.56;;;24.05;47.12
30021;BME280;16861;52.294;7.760;2023-07-22T10:32:53;99561.09;;;24.07;45.80
30021;BME280;16861;52.294;7.760;2023-07-22T10:38:10;99546.53;;;24.02;45.80
30021;BME280;16861;52.294;7.760;2023-07-22T10:40:49;99550.59;;;23.98;45.66
30021;BME280;16861;52.294;7.760;2023-07-22T10:43:17;99551.63;;;23.97;46.18
30021;BME280;16861;52.294;7.760;2023-07-22T10:45:50;99549.66;;;23.90;46.38
30021;BME280;16861;52.294;7.760;2023-07-22T10:48:18;99553.34;;;23.89;46.35
30021;BME280;16861;52.294;7.760;2023-07-22T10:56:06;99570.91;;;23.53;47.12
30021;BME280;16861;52.294;7.760;2023-07-22T11:06:32;99556.25;;;22.84;48.51
30021;BME280;16861;52.294;7.760;2023-07-22T11:08:58;99550.09;;;22.67;49.10
30021;BME280;16861;52.294;7.760;2023-07-22T11:11:44;99549.28;;;22.50;50.39
30021;BME280;16861;52.294;7.760;2023-07-22T11:14:18;99549.78;;;22.45;50.67
30021;BME280;16861;52.294;7.760;2023-07-22T11:16:47;99545.78;;;22.41;50.60
30021;BME280;16861;52.294;7.760;2023-07-22T11:19:15;99546.97;;;22.38;50.53
30021;BME280;16861;52.294;7.760;2023-07-22T11:21:46;99544.44;;;22.37;51.05
30021;BME280;16861;52.294;7.760;2023-07-22T11:24:13;99544.09;;;22.40;51.48
30021;BME280;16861;52.294;7.760;2023-07-22T11:26:40;99532.84;;;22.45;51.88
30021;BME280;16861;52.294;7.760;2023-07-22T11:29:09;99539.38;;;22.50;51.60
30021;BME280;16861;52.294;7.760;2023-07-22T11:31:40;99531.00;;;22.54;51.57
30021;BME280;16861;52.294;7.760;2023-07-22T11:34:09;99538.75;;;22.57;51.57
30021;BME280;16861;52.294;7.760;2023-07-22T11:36:35;99538.03;;;22.63;51.04
30021;BME280;16861;52.294;7.760;2023-07-22T11:39:09;99535.06;;;22.58;51.15
30021;BME280;16861;52.294;7.760;2023-07-22T11:41:37;99532.53;;;22.56;51.67
30021;BME280;16861;52.294;7.760;2023-07-22T11:44:04;99526.31;;;22.56;51.60
30021;BME280;16861;52.294;7.760;2023-07-22T11:47:13;99521.47;;;22.51;52.55
30021;BME280;16861;52.294;7.760;2023-07-22T11:49:41;99516.75;;;22.61;52.66
30021;BME280;16861;52.294;7.760;2023-07-22T11:52:09;99500.63;;;22.70;52.64
30021;BME280;16861;52.294;7.760;2023-07-22T11:54:39;99503.44;;;22.85;52.90
30021;BME280;16861;52.294;7.760;2023-07-22T11:57:13;99502.00;;;23.06;52.78
30021;BME280;16861;52.294;7.760;2023-07-22T11:59:44;99511.75;;;23.30;52.10
30021;BME280;16861;52.294;7.760;2023-07-22T12:02:25;99502.72;;;23.54;52.40
30021;BME280;16861;52.294;7.760;2023-07-22T12:07:34;99495.78;;;24.22;49.10
30021;BME280;16861;52.294;7.760;2023-07-22T12:10:03;99503.97;;;24.59;49.23
30021;BME280;16861;52.294;7.760;2023-07-22T12:12:35;99505.38;;;24.85;48.02
30021;BME280;16861;52.294;7.760;2023-07-22T12:15:16;99504.34;;;25.01;46.94
30021;BME280;16861;52.294;7.760;2023-07-22T12:20:30;99489.25;;;25.44;46.07
30021;BME280;16861;52.294;7.760;2023-07-22T12:22:58;99495.56;;;25.73;47.00
30021;BME280;16861;52.294;7.760;2023-07-22T12:25:25;99496.44;;;26.02;46.01
30021;BME280;16861;52.294;7.760;2023-07-22T12:27:52;99486.25;;;26.26;44.71
30021;BME280;16861;52.294;7.760;2023-07-22T12:30:19;99483.06;;;26.44;43.66
30021;BME280;16861;52.294;7.760;2023-07-22T12:32:47;99491.41;;;26.56;43.50
30021;BME280;16861;52.294;7.760;2023-07-22T12:35:14;99481.28;;;26.65;43.06
30021;BME280;16861;52.294;7.760;2023-07-22T12:37:41;99487.13;;;26.69;42.38
30021;BME280;16861;52.294;7.760;2023-07-22T12:40:07;99492.31;;;26.70;42.12
30021;BME280;16861;52.294;7.760;2023-07-22T12:42:36;99492.72;;;26.67;41.72
30021;BME280;16861;52.294;7.760;2023-07-22T12:45:03;99483.53;;;26.61;41.34
30021;BME280;16861;52.294;7.760;2023-07-22T12:47:30;99495.16;;;26.55;41.36
30021;BME280;16861;52.294;7.760;2023-07-22T12:49:57;99486.78;;;26.43;40.83
30021;BME280;16861;52.294;7.760;2023-07-22T12:52:24;99486.50;;;26.31;41.24
30021;BME280;16861;52.294;7.760;2023-07-22T12:54:50;99495.31;;;26.18;41.28
30021;BME280;16861;52.294;7.760;2023-07-22T12:57:17;99489.81;;;26.05;42.02
30021;BME280;16861;52.294;7.760;2023-07-22T12:59:43;99489.53;;;25.93;41.76
30021;BME280;16861;52.294;7.760;2023-07-22T13:02:13;99487.97;;;25.83;42.00
30021;BME280;16861;52.294;7.760;2023-07-22T13:04:40;99487.50;;;25.73;42.44
30021;BME280;16861;52.294;7.760;2023-07-22T13:07:06;99484.09;;;25.64;41.93
30021;BME280;16861;52.294;7.760;2023-07-22T13:09:33;99485.06;;;25.56;41.83
30021;BME280;16861;52.294;7.760;2023-07-22T13:12:00;99498.63;;;25.48;41.86
30021;BME280;16861;52.294;7.760;2023-07-22T13:14:26;99481.94;;;25.37;41.62
30021;BME280;16861;52.294;7.760;2023-07-22T13:16:53;99482.69;;;25.31;41.86
30021;BME280;16861;52.294;7.760;2023-07-22T13:19:19;99482.44;;;25.26;41.91
30021;BME280;16861;52.294;7.760;2023-07-22T13:21:46;99476.44;;;25.24;42.12
30021;BME280;16861;52.294;7.760;2023-07-22T13:24:12;99480.16;;;25.23;42.07
30021;BME280;16861;52.294;7.760;2023-07-22T13:26:39;99466.22;;;25.19;41.89
30021;BME280;16861;52.294;7.760;2023-07-22T13:29:06;99464.13;;;25.15;41.97